createdAt,value
2019-02-17T00:01:09.731Z,60.95
2019-02-17T00:04:54.477Z,61.69
2019-02-17T00:08:39.074Z,61.66
2019-02-17T00:12:23.704Z,60.81
2019-02-17T00:16:08.370Z,60.76
2019-02-17T00:19:53.426Z,61.81
2019-02-17T00:23:38.352Z,60.64
2019-02-17T00:34:41.188Z,58.28
2019-02-17T00:38:18.458Z,58.01
2019-02-17T00:42:03.416Z,58.21
2019-02-17T00:45:48.035Z,58.45
2019-02-17T00:49:32.642Z,57.44
2019-02-17T00:57:08.827Z,58.35
2019-02-17T01:00:53.772Z,58.11
2019-02-17T01:04:38.534Z,57.81
2019-02-17T01:08:23.253Z,58.31
2019-02-17T01:12:08.462Z,58.14
2019-02-17T01:15:53.098Z,58.37
2019-02-17T01:19:37.794Z,58.47
2019-02-17T01:23:22.724Z,58.61
2019-02-17T01:27:07.556Z,58.62
2019-02-17T01:30:52.207Z,58.75
2019-02-17T01:34:36.881Z,59.60
2019-02-17T01:38:21.861Z,59.26
2019-02-17T01:42:06.715Z,59.59
2019-02-17T01:45:51.413Z,59.92
2019-02-17T01:49:54.890Z,59.09
2019-02-17T01:53:39.520Z,59.72
2019-02-17T01:57:24.211Z,60.00
2019-02-17T02:01:08.811Z,60.15
2019-02-17T02:04:53.427Z,59.92
2019-02-17T02:08:38.315Z,59.78
2019-02-17T02:12:22.982Z,61.15
2019-02-17T02:20:11.826Z,61.68
2019-02-17T02:23:56.535Z,60.96
2019-02-17T02:27:40.534Z,61.95
2019-02-17T02:31:25.452Z,61.41
2019-02-17T02:35:10.180Z,60.84
2019-02-17T02:38:47.570Z,61.93
2019-02-17T02:42:32.176Z,61.80
2019-02-17T02:46:16.808Z,61.78
2019-02-17T02:50:01.459Z,61.58
2019-02-17T02:53:46.419Z,62.71
2019-02-17T02:57:31.043Z,62.69
2019-02-17T03:01:15.637Z,63.60
2019-02-17T03:05:00.638Z,63.57
2019-02-17T03:08:45.314Z,64.46
2019-02-17T03:12:29.986Z,63.78
2019-02-17T03:16:14.614Z,62.29
2019-02-17T03:19:59.247Z,63.40
2019-02-17T03:23:43.835Z,62.36
2019-02-17T03:27:28.461Z,62.27
2019-02-17T03:31:13.054Z,62.96
2019-02-17T03:34:57.925Z,62.62
2019-02-17T03:38:42.562Z,63.32
2019-02-17T03:42:27.512Z,63.77
2019-02-17T03:46:12.446Z,61.76
2019-02-17T03:49:57.069Z,63.37
2019-02-17T03:53:41.925Z,62.38
2019-02-17T04:01:16.794Z,62.00
2019-02-17T04:05:01.430Z,61.56
2019-02-17T04:08:46.008Z,61.39
2019-02-17T04:12:30.645Z,61.89
2019-02-17T04:16:15.279Z,63.65
2019-02-17T04:19:59.907Z,62.94
2019-02-17T04:23:44.705Z,62.69
2019-02-17T04:27:29.702Z,61.65
2019-02-17T04:31:14.366Z,63.18
2019-02-17T04:34:58.961Z,63.38
2019-02-17T04:38:35.852Z,62.88
2019-02-17T04:42:20.819Z,62.29
2019-02-17T04:46:05.458Z,61.75
2019-02-17T04:49:50.345Z,61.87
2019-02-17T04:53:35.708Z,62.01
2019-02-17T04:57:20.650Z,63.45
2019-02-17T05:01:05.243Z,63.59
2019-02-17T05:04:49.929Z,62.99
2019-02-17T05:08:34.534Z,62.57
2019-02-17T05:12:19.156Z,63.66
2019-02-17T05:16:03.772Z,62.62
2019-02-17T05:20:07.205Z,62.84
2019-02-17T05:23:51.838Z,62.67
2019-02-17T05:27:36.724Z,61.66
2019-02-17T05:31:21.347Z,62.04
2019-02-17T05:35:06.098Z,63.35
2019-02-17T05:38:51.030Z,63.34
2019-02-17T05:42:28.144Z,64.28
2019-02-17T05:46:13.096Z,63.53
2019-02-17T05:49:58.017Z,64.06
2019-02-17T05:53:23.574Z,62.44
2019-02-17T05:57:08.199Z,63.85
2019-02-17T06:01:02.979Z,64.36
2019-02-17T06:04:39.118Z,63.74
2019-02-17T06:08:23.744Z,62.84
2019-02-17T06:12:08.639Z,63.19
2019-02-17T06:15:53.273Z,62.99
2019-02-17T06:19:38.534Z,63.21
2019-02-17T06:23:23.156Z,62.85
2019-02-17T06:27:07.726Z,62.63
2019-02-17T06:31:14.498Z,62.64
2019-02-17T06:34:57.984Z,62.93
2019-02-17T06:38:42.605Z,62.73
2019-02-17T06:42:19.666Z,62.26
2019-02-17T06:46:04.282Z,61.69
2019-02-17T06:49:29.952Z,61.73
2019-02-17T06:52:55.664Z,62.33
2019-02-17T06:56:35.551Z,62.44
2019-02-17T07:00:14.837Z,62.43
2019-02-17T07:03:40.416Z,61.58
2019-02-17T07:07:07.180Z,61.90
2019-02-17T07:10:33.218Z,62.81
2019-02-17T07:13:58.803Z,62.54
2019-02-17T07:17:24.426Z,61.47
2019-02-17T07:20:50.175Z,61.45
2019-02-17T07:24:15.862Z,60.59
2019-02-17T07:27:41.550Z,60.99
2019-02-17T07:31:07.153Z,61.03
2019-02-17T07:34:33.118Z,60.51
2019-02-17T07:38:00.317Z,60.96
2019-02-17T07:41:26.328Z,59.71
2019-02-17T07:44:52.076Z,59.54
2019-02-17T07:48:18.554Z,59.83
2019-02-17T07:51:45.589Z,59.14
2019-02-17T07:55:11.516Z,59.28
2019-02-17T07:58:37.147Z,58.96
2019-02-17T08:02:02.738Z,58.80
2019-02-17T08:05:28.284Z,58.13
2019-02-17T08:08:53.870Z,57.94
2019-02-17T08:12:19.455Z,58.04
2019-02-17T08:15:45.108Z,57.81
2019-02-17T08:19:11.071Z,56.84
2019-02-17T08:22:36.738Z,57.40
2019-02-17T08:26:02.311Z,56.83
2019-02-17T08:29:28.289Z,55.93
2019-02-17T08:32:54.245Z,55.89
2019-02-17T08:36:19.990Z,55.36
2019-02-17T08:39:45.928Z,55.69
2019-02-17T08:43:13.060Z,55.36
2019-02-17T08:46:39.067Z,55.04
2019-02-17T08:50:04.806Z,55.02
2019-02-17T08:53:30.828Z,54.80
2019-02-17T08:56:56.426Z,54.28
2019-02-17T09:00:21.988Z,54.30
2019-02-17T09:03:47.670Z,53.52
2019-02-17T09:07:13.346Z,52.77
2019-02-17T09:10:38.912Z,52.54
2019-02-17T09:14:04.523Z,52.41
2019-02-17T09:17:30.342Z,51.87
2019-02-17T09:20:56.056Z,51.76
2019-02-17T09:24:21.933Z,51.36
2019-02-17T09:27:47.561Z,51.10
2019-02-17T09:31:13.177Z,49.86
2019-02-17T09:34:38.798Z,49.77
2019-02-17T09:38:04.487Z,49.54
2019-02-17T09:41:30.097Z,48.38
2019-02-17T09:44:55.923Z,47.58
2019-02-17T09:48:21.900Z,46.87
2019-02-17T09:51:47.611Z,43.97
2019-02-17T09:55:13.255Z,40.49
2019-02-17T09:58:39.042Z,38.27
2019-02-17T10:02:04.628Z,36.36
2019-02-17T10:05:30.229Z,35.19
2019-02-17T10:08:55.977Z,36.88
2019-02-17T10:12:21.736Z,34.87
2019-02-17T10:15:47.951Z,35.23
2019-02-17T10:19:13.844Z,38.13
2019-02-17T10:22:40.868Z,36.88
2019-02-17T10:26:06.447Z,34.58
2019-02-17T10:29:32.049Z,33.58
2019-02-17T10:32:58.460Z,30.73
2019-02-17T10:36:24.274Z,29.66
2019-02-17T10:39:49.839Z,29.25
2019-02-17T10:43:15.436Z,28.93
2019-02-17T10:46:41.039Z,27.56
2019-02-17T10:50:07.341Z,27.79
2019-02-17T10:53:33.217Z,28.58
2019-02-17T10:56:58.817Z,27.56
2019-02-17T11:00:24.501Z,27.50
2019-02-17T11:04:11.086Z,27.08
2019-02-17T11:07:36.670Z,26.42
2019-02-17T11:11:02.238Z,26.03
2019-02-17T11:14:27.892Z,25.94
2019-02-17T11:17:53.816Z,26.63
2019-02-17T11:21:19.541Z,26.41
2019-02-17T11:24:45.384Z,25.69
2019-02-17T11:28:10.984Z,25.10
2019-02-17T11:31:36.888Z,23.19
2019-02-17T11:35:02.474Z,23.31
2019-02-17T11:38:28.079Z,22.73
2019-02-17T11:41:54.251Z,23.32
2019-02-17T11:45:20.535Z,21.81
2019-02-17T11:48:46.092Z,21.95
2019-02-17T11:52:11.722Z,22.33
2019-02-17T11:55:37.350Z,24.36
2019-02-17T11:59:02.937Z,24.96
2019-02-17T12:02:28.767Z,24.27
2019-02-17T12:05:54.497Z,25.19
2019-02-17T12:09:20.092Z,24.05
2019-02-17T12:12:46.128Z,25.73
2019-02-17T12:16:15.009Z,26.38
2019-02-17T12:19:58.086Z,26.42
2019-02-17T12:23:46.405Z,25.22
2019-02-17T12:27:30.611Z,23.72
2019-02-17T12:30:56.232Z,24.30
2019-02-17T12:34:22.267Z,25.07
2019-02-17T12:37:48.221Z,22.42
2019-02-17T12:41:13.853Z,23.21
2019-02-17T12:44:39.587Z,22.60
2019-02-17T12:48:05.242Z,23.47
2019-02-17T12:51:31.243Z,22.10
2019-02-17T12:54:56.825Z,22.44
2019-02-17T12:58:29.597Z,21.60
2019-02-17T13:01:50.010Z,21.66
2019-02-17T13:05:15.675Z,19.64
2019-02-17T13:08:41.704Z,19.01
2019-02-17T13:12:07.430Z,19.13
2019-02-17T13:15:33.072Z,20.63
2019-02-17T13:18:58.869Z,21.93
2019-02-17T13:22:24.502Z,22.51
2019-02-17T13:25:50.175Z,23.15
2019-02-17T13:29:15.810Z,22.69
2019-02-17T13:32:42.410Z,21.18
2019-02-17T13:36:08.198Z,20.49
2019-02-17T13:39:34.073Z,21.29
2019-02-17T13:42:59.716Z,20.43
2019-02-17T13:46:25.418Z,19.27
2019-02-17T13:49:51.277Z,18.78
2019-02-17T13:53:17.130Z,18.61
2019-02-17T13:56:42.927Z,18.11
2019-02-17T14:00:12.789Z,16.96
2019-02-17T14:03:38.385Z,16.08
2019-02-17T14:07:03.997Z,15.62
2019-02-17T14:10:29.947Z,15.93
2019-02-17T14:13:55.594Z,16.62
2019-02-17T14:17:21.217Z,16.28
2019-02-17T14:20:47.042Z,16.52
2019-02-17T14:24:12.767Z,18.03
2019-02-17T14:27:38.366Z,17.10
2019-02-17T14:31:03.959Z,15.64
2019-02-17T14:34:29.579Z,14.79
2019-02-17T14:37:55.185Z,14.33
2019-02-17T14:41:20.846Z,14.52
2019-02-17T14:44:46.425Z,15.77
2019-02-17T14:48:12.479Z,16.84
2019-02-17T14:51:38.066Z,16.85
2019-02-17T14:55:03.641Z,16.33
2019-02-17T14:58:29.268Z,17.01
2019-02-17T15:01:54.853Z,17.51
2019-02-17T15:05:20.500Z,18.42
2019-02-17T15:08:46.128Z,17.48
2019-02-17T15:12:12.068Z,17.28
2019-02-17T15:15:37.674Z,18.04
2019-02-17T15:19:03.373Z,18.77
2019-02-17T15:22:29.032Z,19.62
2019-02-17T15:25:54.612Z,19.03
2019-02-17T15:29:20.577Z,18.22
2019-02-17T15:32:46.181Z,19.25
2019-02-17T15:36:11.854Z,18.97
2019-02-17T15:39:37.477Z,18.91
2019-02-17T15:43:03.108Z,18.37
2019-02-17T15:46:28.692Z,20.14
2019-02-17T15:49:54.314Z,19.73
2019-02-17T15:53:19.899Z,19.79
2019-02-17T15:56:45.507Z,19.87
2019-02-17T16:00:13.802Z,21.33
2019-02-17T16:03:39.730Z,21.28
2019-02-17T16:07:05.490Z,21.37
2019-02-17T16:10:31.121Z,22.35
2019-02-17T16:13:57.053Z,24.66
2019-02-17T16:17:22.748Z,24.21
2019-02-17T16:20:48.693Z,24.99
2019-02-17T16:24:14.414Z,25.71
2019-02-17T16:27:39.983Z,26.99
2019-02-17T16:31:05.639Z,27.01
2019-02-17T16:34:38.125Z,27.28
2019-02-17T16:37:59.083Z,28.31
2019-02-17T16:41:24.773Z,28.12
2019-02-17T16:44:50.393Z,28.83
2019-02-17T16:48:16.475Z,29.97
2019-02-17T16:51:42.046Z,31.12
2019-02-17T16:55:09.386Z,32.41
2019-02-17T16:58:35.064Z,30.23
2019-02-17T17:02:00.779Z,29.30
2019-02-17T17:05:26.672Z,29.47
2019-02-17T17:08:52.634Z,29.54
2019-02-17T17:12:19.083Z,30.22
2019-02-17T17:15:45.546Z,31.74
2019-02-17T17:19:11.252Z,32.59
2019-02-17T17:22:36.997Z,33.26
2019-02-17T17:26:02.633Z,32.83
2019-02-17T17:29:28.304Z,32.49
2019-02-17T17:32:53.971Z,32.54
2019-02-17T17:36:19.583Z,32.77
2019-02-17T17:39:46.132Z,33.72
2019-02-17T17:43:11.723Z,34.25
2019-02-17T17:46:37.301Z,32.86
2019-02-17T17:50:02.965Z,33.66
2019-02-17T17:53:28.583Z,32.50
2019-02-17T17:56:54.300Z,33.11
2019-02-17T18:00:20.882Z,33.26
2019-02-17T18:03:46.483Z,33.49
2019-02-17T18:07:12.096Z,32.42
2019-02-17T18:10:37.708Z,33.34
2019-02-17T18:14:03.395Z,33.46
2019-02-17T18:17:29.393Z,33.66
2019-02-17T18:20:55.133Z,33.37
2019-02-17T18:24:20.854Z,34.16
2019-02-17T18:27:48.197Z,33.96
2019-02-17T18:31:13.865Z,34.54
2019-02-17T18:34:39.784Z,34.24
2019-02-17T18:38:05.356Z,35.43
2019-02-17T18:41:31.018Z,34.80
2019-02-17T18:44:56.637Z,34.95
2019-02-17T18:48:22.338Z,35.18
2019-02-17T18:51:48.065Z,35.71
2019-02-17T18:55:13.867Z,35.70
2019-02-17T18:58:41.190Z,35.63
2019-02-17T19:02:07.013Z,35.83
2019-02-17T19:05:32.666Z,35.77
2019-02-17T19:08:58.465Z,36.33
2019-02-17T19:12:24.172Z,37.15
2019-02-17T19:15:50.374Z,37.19
2019-02-17T19:19:18.531Z,37.04
2019-02-17T19:26:35.020Z,37.19
2019-02-17T19:30:19.966Z,36.75
2019-02-17T19:33:45.588Z,37.09
2019-02-17T19:41:01.896Z,37.49
2019-02-17T19:44:46.590Z,37.51
2019-02-17T19:48:12.205Z,37.73
2019-02-17T19:51:56.796Z,38.04
2019-02-17T19:55:22.424Z,38.53
2019-02-17T19:59:07.051Z,38.12
2019-02-17T20:03:10.570Z,39.11
2019-02-17T20:06:55.215Z,38.53
2019-02-17T20:10:20.886Z,38.87
2019-02-17T20:13:46.494Z,39.44
2019-02-17T20:17:12.253Z,39.13
2019-02-17T20:20:37.952Z,39.77
2019-02-17T20:24:03.560Z,39.89
2019-02-17T20:27:29.139Z,40.28
2019-02-17T20:31:14.074Z,41.40
2019-02-17T20:34:58.736Z,41.21
2019-02-17T20:42:33.840Z,41.82
2019-02-17T20:46:18.498Z,42.11
2019-02-17T20:50:03.172Z,41.28
2019-02-17T20:53:48.126Z,41.10
2019-02-17T20:57:32.888Z,41.52
2019-02-17T21:01:17.557Z,42.69
2019-02-17T21:05:02.210Z,41.49
2019-02-17T21:08:39.126Z,41.72
2019-02-17T21:12:23.941Z,42.52
2019-02-17T21:16:27.830Z,43.14
2019-02-17T21:20:12.524Z,42.25
2019-02-17T21:27:52.666Z,43.26
2019-02-17T21:31:44.669Z,42.35
2019-02-17T21:35:29.310Z,42.79
2019-02-17T21:39:13.968Z,43.51
2019-02-17T21:42:58.566Z,44.07
2019-02-17T21:46:43.157Z,42.66
2019-02-17T21:50:27.797Z,43.21
2019-02-17T21:54:12.380Z,43.51
2019-02-17T21:57:57.007Z,42.89
2019-02-17T22:01:41.741Z,43.25
2019-02-17T22:05:26.353Z,44.21
2019-02-17T22:09:05.165Z,43.43
2019-02-17T22:12:51.351Z,43.28
2019-02-17T22:16:36.184Z,44.47
2019-02-17T22:20:20.835Z,43.88
2019-02-17T22:24:05.448Z,43.71
2019-02-17T22:27:50.164Z,44.63
2019-02-17T22:31:34.967Z,43.27
2019-02-17T22:35:19.581Z,44.23
2019-02-17T22:39:05.597Z,44.05
2019-02-17T22:42:50.210Z,43.61
2019-02-17T22:46:34.838Z,44.51
2019-02-17T22:50:19.461Z,43.12
2019-02-17T22:54:04.096Z,43.48
2019-02-17T22:57:48.714Z,44.00
2019-02-17T23:01:34.934Z,43.69
2019-02-17T23:05:19.589Z,44.72
2019-02-17T23:13:07.875Z,43.77
2019-02-17T23:16:52.464Z,44.26
2019-02-17T23:24:27.676Z,44.17
2019-02-17T23:28:12.304Z,44.67
2019-02-17T23:31:57.029Z,44.12
2019-02-17T23:35:41.671Z,44.20
2019-02-17T23:39:26.295Z,45.07
2019-02-17T23:43:10.952Z,45.15
2019-02-17T23:46:55.543Z,45.13
2019-02-17T23:50:40.910Z,44.93
2019-02-17T23:54:25.522Z,45.74
2019-02-17T23:58:10.104Z,45.77
